Time;durP1;ratioP1;P1;durP2;ratioP2;P2;SDS_P1;SDS_P2;PMS_P1;PMS_P2;Temp;Humidity;BMP_temperature;BMP_pressure;BME280_temperature;BME280_humidity;BME280_pressure;Samples;Min_cycle;Max_cycle;Signal;HPM_P1;HPM_P2
2023/08/25 00:00:39;;;;;;;7.00;5.97;;;21.10;77.70;;;;;;4904648;29;20113;-73
2023/08/25 00:03:05;;;;;;;7.93;6.93;;;21.00;77.70;;;;;;4920417;29;20519;-73
2023/08/25 00:05:39;;;;;;;6.07;5.55;;;21.00;77.70;;;;;;4936384;29;20031;-73
2023/08/25 00:08:05;;;;;;;7.03;5.82;;;21.00;77.60;;;;;;4937497;29;20150;-72
2023/08/25 00:10:32;;;;;;;11.10;8.68;;;21.00;77.70;;;;;;4922397;29;20447;-72
2023/08/25 00:12:58;;;;;;;9.85;8.95;;;21.00;78.00;;;;;;4937735;29;20479;-72
2023/08/25 00:15:23;;;;;;;6.95;6.25;;;21.00;78.30;;;;;;4936887;29;20082;-73
2023/08/25 00:17:50;;;;;;;9.32;8.43;;;21.00;78.50;;;;;;4937387;29;20079;-73
2023/08/25 00:20:16;;;;;;;8.77;7.88;;;21.00;78.70;;;;;;4934219;29;20036;-73
2023/08/25 00:22:41;;;;;;;9.95;9.05;;;21.00;78.60;;;;;;4942803;29;20093;-73
2023/08/25 00:25:08;;;;;;;9.57;8.38;;;20.90;78.70;;;;;;4937161;29;20039;-73
2023/08/25 00:27:34;;;;;;;7.70;7.00;;;20.90;78.80;;;;;;4937980;28;20039;-72
2023/08/25 00:30:00;;;;;;;9.05;8.15;;;20.90;78.90;;;;;;4928439;29;20534;-72
2023/08/25 00:32:26;;;;;;;9.07;8.27;;;20.90;78.90;;;;;;4919037;29;20051;-73
2023/08/25 00:34:53;;;;;;;10.50;9.50;;;20.90;78.90;;;;;;4934394;29;20044;-72
2023/08/25 00:37:18;;;;;;;13.25;11.95;;;20.90;79.10;;;;;;4944439;29;20050;-72
2023/08/25 00:39:45;;;;;;;8.27;7.47;;;20.90;79.70;;;;;;4921660;29;20047;-72
2023/08/25 00:42:11;;;;;;;9.60;8.57;;;20.90;79.80;;;;;;4918820;29;20054;-72
2023/08/25 00:44:37;;;;;;;13.10;11.88;;;20.90;79.80;;;;;;4928769;29;20403;-72
2023/08/25 00:47:03;;;;;;;10.48;9.48;;;20.90;80.40;;;;;;4931009;29;20513;-72
2023/08/25 00:49:30;;;;;;;12.38;11.15;;;20.90;80.10;;;;;;4923811;29;20048;-72
2023/08/25 00:51:57;;;;;;;11.70;10.40;;;20.90;80.10;;;;;;4918366;29;20054;-72
2023/08/25 00:54:27;;;;;;;15.50;14.05;;;20.90;80.10;;;;;;4918762;29;20091;-72
2023/08/25 00:56:53;;;;;;;14.00;12.70;;;20.90;80.30;;;;;;4918807;29;20102;-72
2023/08/25 00:59:18;;;;;;;10.35;9.35;;;20.90;80.50;;;;;;4904138;29;20459;-72
2023/08/25 01:01:45;;;;;;;14.00;12.70;;;20.90;80.40;;;;;;4932739;29;20056;-72
2023/08/25 01:04:11;;;;;;;13.95;12.55;;;20.90;80.30;;;;;;4924786;29;20105;-72
2023/08/25 01:06:38;;;;;;;16.33;14.40;;;20.90;80.20;;;;;;4939577;29;20031;-72
2023/08/25 01:09:05;;;;;;;18.55;16.88;;;21.00;80.40;;;;;;4927775;29;20495;-72
2023/08/25 01:12:10;;;;;;;15.73;14.30;;;21.00;80.60;;;;;;4922544;29;20110;-72
2023/08/25 01:14:58;;;;;;;14.65;13.35;;;21.00;80.50;;;;;;4923266;29;20152;-72
2023/08/25 01:17:42;;;;;;;13.18;11.95;;;21.00;80.50;;;;;;4922075;29;20040;-72
2023/08/25 01:20:09;;;;;;;11.05;10.02;;;21.00;80.40;;;;;;4922211;29;20523;-72
2023/08/25 01:22:57;;;;;;;13.15;11.95;;;20.90;80.30;;;;;;4913816;29;20040;-72
2023/08/25 01:25:26;;;;;;;16.88;15.15;;;21.00;80.00;;;;;;4921924;29;20063;-72
2023/08/25 01:27:55;;;;;;;16.73;15.13;;;21.00;80.20;;;;;;4922148;29;20050;-72
2023/08/25 01:30:26;;;;;;;15.25;13.85;;;21.00;80.20;;;;;;4916830;29;20181;-72
2023/08/25 01:32:52;;;;;;;22.42;20.38;;;20.90;80.10;;;;;;4925853;29;20050;-72
2023/08/25 01:35:25;;;;;;;16.00;14.38;;;21.00;80.30;;;;;;4925203;29;20062;-72
2023/08/25 01:37:58;;;;;;;19.40;16.98;;;20.90;80.20;;;;;;4939100;29;20043;-72
2023/08/25 01:40:46;;;;;;;17.75;16.08;;;20.90;80.20;;;;;;4948261;28;20500;-73
2023/08/25 01:43:18;;;;;;;20.40;18.30;;;20.90;80.30;;;;;;4921170;29;20094;-73
2023/08/25 01:45:46;;;;;;;20.25;18.20;;;20.90;80.30;;;;;;4952469;28;20423;-72
2023/08/25 01:48:14;;;;;;;17.80;16.20;;;20.90;80.40;;;;;;4929434;29;20070;-72
2023/08/25 01:50:40;;;;;;;15.05;13.65;;;20.90;80.40;;;;;;4923626;28;20047;-72
2023/08/25 01:53:08;;;;;;;15.73;14.25;;;20.90;80.20;;;;;;4939755;29;20047;-72
2023/08/25 01:55:35;;;;;;;20.35;18.55;;;20.90;80.10;;;;;;4934579;29;20175;-72
2023/08/25 01:58:02;;;;;;;26.70;24.10;;;20.90;80.20;;;;;;4939490;29;20047;-72
2023/08/25 02:00:28;;;;;;;15.85;14.40;;;20.90;80.40;;;;;;4938013;29;20506;-72
2023/08/25 02:02:55;;;;;;;15.88;14.43;;;20.90;80.30;;;;;;4914825;29;20050;-72
2023/08/25 02:05:22;;;;;;;18.27;16.58;;;20.90;80.10;;;;;;4921332;29;20048;-72
2023/08/25 02:07:48;;;;;;;18.25;16.45;;;20.90;80.00;;;;;;4930494;29;20043;-72
2023/08/25 02:10:14;;;;;;;18.63;16.80;;;20.90;79.90;;;;;;4938325;29;20042;-72
2023/08/25 02:12:39;;;;;;;14.75;13.25;;;20.90;79.80;;;;;;4939291;29;20046;-72
2023/08/25 02:15:06;;;;;;;19.05;17.25;;;20.80;79.60;;;;;;4939659;29;20126;-72
2023/08/25 02:17:31;;;;;;;15.50;14.02;;;20.80;79.50;;;;;;4918054;29;20035;-72
2023/08/25 02:19:57;;;;;;;15.48;14.00;;;20.80;79.50;;;;;;4936740;28;20114;-72
2023/08/25 02:22:23;;;;;;;15.48;14.00;;;20.80;79.40;;;;;;4939889;29;20047;-72
2023/08/25 02:24:49;;;;;;;13.95;12.55;;;20.80;79.40;;;;;;4922275;29;20040;-72
2023/08/25 02:27:15;;;;;;;21.65;19.58;;;20.80;79.30;;;;;;4938562;29;20087;-72
2023/08/25 02:29:41;;;;;;;17.75;16.15;;;20.80;79.40;;;;;;4939686;29;20051;-72
2023/08/25 02:32:06;;;;;;;21.10;18.90;;;20.80;79.50;;;;;;4939960;29;20075;-72
2023/08/25 02:34:32;;;;;;;19.10;17.25;;;20.70;79.60;;;;;;4937647;29;20550;-72
2023/08/25 02:36:58;;;;;;;23.20;21.00;;;20.70;79.70;;;;;;4939124;29;20038;-72
2023/08/25 02:39:23;;;;;;;24.38;22.15;;;20.80;79.90;;;;;;4914889;29;20054;-72
2023/08/25 02:41:49;;;;;;;24.33;21.83;;;20.80;80.10;;;;;;4920688;29;20036;-72
2023/08/25 02:44:15;;;;;;;27.02;24.35;;;20.80;80.20;;;;;;4920748;29;20043;-72
2023/08/25 02:46:42;;;;;;;24.88;22.60;;;20.80;80.50;;;;;;4920434;29;20054;-72
2023/08/25 02:49:08;;;;;;;29.80;26.90;;;20.70;80.60;;;;;;4889201;29;20043;-72
2023/08/25 02:51:33;;;;;;;23.35;21.15;;;20.70;80.80;;;;;;4922188;29;20054;-72
2023/08/25 02:53:59;;;;;;;17.55;15.85;;;20.70;80.90;;;;;;4933852;29;20039;-72
2023/08/25 02:56:25;;;;;;;17.95;16.25;;;20.70;80.90;;;;;;4916879;29;20558;-71
2023/08/25 02:58:50;;;;;;;21.15;19.05;;;20.60;80.70;;;;;;4920220;29;20107;-71
2023/08/25 03:01:16;;;;;;;14.50;13.10;;;20.60;80.60;;;;;;4895449;29;20384;-72
2023/08/25 03:03:43;;;;;;;26.73;24.08;;;20.60;80.50;;;;;;4898338;29;20036;-72
2023/08/25 03:06:09;;;;;;;19.08;17.08;;;20.60;80.50;;;;;;4898677;29;20501;-72
2023/08/25 03:08:35;;;;;;;20.23;18.25;;;20.60;80.50;;;;;;4902264;29;20036;-72
2023/08/25 03:11:02;;;;;;;14.25;12.75;;;20.50;80.30;;;;;;4916839;29;20502;-72
2023/08/25 03:13:29;;;;;;;12.95;11.63;;;20.50;80.20;;;;;;4915954;29;20032;-72
2023/08/25 03:15:54;;;;;;;13.05;11.75;;;20.50;79.90;;;;;;4885840;29;20048;-72
2023/08/25 03:18:20;;;;;;;14.60;12.88;;;20.50;79.70;;;;;;4916687;29;20039;-72
2023/08/25 03:20:52;;;;;;;14.82;13.40;;;20.50;79.50;;;;;;4916715;29;20036;-72
2023/08/25 03:23:18;;;;;;;14.35;12.98;;;20.50;79.40;;;;;;4915891;29;20076;-71
2023/08/25 03:25:44;;;;;;;16.83;15.13;;;20.40;79.30;;;;;;4890110;29;20503;-72
2023/08/25 03:28:10;;;;;;;15.45;13.93;;;20.40;79.30;;;;;;4897772;29;20061;-71
2023/08/25 03:30:37;;;;;;;15.65;14.10;;;20.40;79.30;;;;;;4898952;29;20051;-71
2023/08/25 03:33:06;;;;;;;12.73;11.43;;;20.40;79.30;;;;;;4867180;29;20047;-72
2023/08/25 03:35:38;;;;;;;14.02;12.57;;;20.40;79.30;;;;;;4897672;29;20045;-71
2023/08/25 03:38:05;;;;;;;19.40;17.50;;;20.30;79.10;;;;;;4897430;29;20048;-72
2023/08/25 03:40:30;;;;;;;16.27;14.68;;;20.30;79.20;;;;;;4900164;29;20511;-72
2023/08/25 03:42:56;;;;;;;15.32;13.73;;;20.30;79.30;;;;;;4912652;29;20044;-72
2023/08/25 03:45:22;;;;;;;15.73;14.23;;;20.30;79.30;;;;;;4910500;29;20051;-72
2023/08/25 03:47:48;;;;;;;14.63;13.23;;;20.30;79.40;;;;;;4914599;29;20119;-72
2023/08/25 03:50:14;;;;;;;19.42;17.45;;;20.30;79.40;;;;;;4915415;29;20091;-72
2023/08/25 03:52:40;;;;;;;15.35;13.85;;;20.20;79.30;;;;;;4914919;29;20131;-72
2023/08/25 03:55:06;;;;;;;19.80;17.95;;;20.20;79.40;;;;;;4897487;29;20388;-72
2023/08/25 03:57:31;;;;;;;30.65;27.45;;;20.20;79.50;;;;;;4902152;29;20044;-72
2023/08/25 03:59:57;;;;;;;23.92;21.83;;;20.20;80.00;;;;;;4914394;29;20066;-72
2023/08/25 04:02:23;;;;;;;30.73;27.77;;;20.20;80.30;;;;;;4930308;29;20134;-72
2023/08/25 04:04:48;;;;;;;26.65;24.05;;;20.20;80.60;;;;;;4918194;29;20040;-72
2023/08/25 04:07:14;;;;;;;22.90;20.67;;;20.20;80.80;;;;;;4934548;29;20039;-72
2023/08/25 04:09:41;;;;;;;16.70;15.00;;;20.20;80.80;;;;;;4934840;29;20043;-72
2023/08/25 04:12:07;;;;;;;20.02;18.00;;;20.10;80.70;;;;;;4934721;29;20126;-72
2023/08/25 04:14:33;;;;;;;23.83;21.50;;;20.10;80.70;;;;;;4923455;29;20075;-72
2023/08/25 04:17:00;;;;;;;26.77;23.92;;;20.10;80.80;;;;;;4913362;29;20047;-72
2023/08/25 04:19:25;;;;;;;29.83;26.48;;;20.10;80.90;;;;;;4934669;29;20043;-72
2023/08/25 04:21:51;;;;;;;29.85;26.85;;;20.10;81.10;;;;;;4934761;29;20070;-72
2023/08/25 04:24:18;;;;;;;18.08;16.38;;;20.10;81.30;;;;;;4918907;29;20039;-72
2023/08/25 04:26:44;;;;;;;18.83;16.92;;;20.10;81.80;;;;;;4950562;29;20066;-72
2023/08/25 04:29:09;;;;;;;34.40;30.85;;;20.10;81.40;;;;;;4925192;29;20076;-72
2023/08/25 04:31:36;;;;;;;27.27;24.45;;;20.10;81.60;;;;;;4914177;29;20051;-72
2023/08/25 04:34:02;;;;;;;29.40;26.42;;;20.10;81.80;;;;;;4947004;28;20134;-72
2023/08/25 04:36:27;;;;;;;30.67;27.25;;;20.00;81.80;;;;;;4919290;29;20132;-72
2023/08/25 04:38:53;;;;;;;34.80;31.10;;;20.00;82.00;;;;;;4893723;29;20044;-72
2023/08/25 04:41:19;;;;;;;30.52;27.52;;;20.00;82.20;;;;;;4926291;29;20043;-72
2023/08/25 04:43:45;;;;;;;33.03;29.70;;;20.00;82.40;;;;;;4915355;29;20040;-72
2023/08/25 04:46:12;;;;;;;26.33;23.40;;;20.00;82.50;;;;;;4931415;29;20040;-72
2023/08/25 04:48:39;;;;;;;25.85;23.23;;;20.00;82.60;;;;;;4922710;29;20074;-71
2023/08/25 04:51:04;;;;;;;24.70;22.27;;;20.00;82.60;;;;;;4934675;29;20047;-72
2023/08/25 04:53:30;;;;;;;26.42;23.75;;;20.00;82.70;;;;;;4934326;29;20524;-72
2023/08/25 04:55:56;;;;;;;27.00;24.25;;;20.00;82.60;;;;;;4933789;29;20048;-72
2023/08/25 04:58:21;;;;;;;26.98;24.35;;;20.00;82.60;;;;;;4918336;29;20039;-72
2023/08/25 05:00:50;;;;;;;21.15;19.15;;;19.90;82.60;;;;;;4909499;29;20520;-72
2023/08/25 05:03:16;;;;;;;24.75;22.23;;;19.90;82.50;;;;;;4904474;29;20047;-71
2023/08/25 05:05:42;;;;;;;22.75;20.42;;;19.90;82.40;;;;;;4927689;29;20066;-72
2023/08/25 05:08:08;;;;;;;29.75;26.17;;;19.90;82.30;;;;;;4918409;29;20126;-72
2023/08/25 05:10:34;;;;;;;29.65;26.60;;;19.90;82.30;;;;;;4918433;29;20175;-72
2023/08/25 05:13:00;;;;;;;30.13;27.02;;;19.90;82.30;;;;;;4920530;29;20043;-72
2023/08/25 05:15:26;;;;;;;31.27;28.17;;;19.90;82.30;;;;;;4926117;29;20054;-72
2023/08/25 05:17:51;;;;;;;33.63;30.05;;;19.90;82.30;;;;;;4902519;29;20055;-72
2023/08/25 05:20:23;;;;;;;34.53;31.02;;;20.00;82.50;;;;;;4918465;29;20040;-72
2023/08/25 05:22:50;;;;;;;31.52;28.30;;;20.00;82.60;;;;;;4923434;29;20122;-72
2023/08/25 05:25:19;;;;;;;34.00;30.58;;;19.90;82.60;;;;;;4921142;29;20074;-72
2023/08/25 05:27:45;;;;;;;31.73;28.52;;;20.00;82.70;;;;;;4902848;29;20487;-72
2023/08/25 05:30:12;;;;;;;31.85;28.52;;;20.00;82.70;;;;;;4918237;29;20143;-72
2023/08/25 05:32:37;;;;;;;35.10;31.38;;;20.00;82.80;;;;;;4935425;29;20071;-72
2023/08/25 05:35:04;;;;;;;32.60;29.33;;;20.00;82.90;;;;;;4927944;29;20044;-72
2023/08/25 05:37:30;;;;;;;31.67;28.48;;;20.00;82.90;;;;;;4903458;29;20044;-72
2023/08/25 05:39:55;;;;;;;35.63;31.92;;;20.00;83.40;;;;;;4918824;29;20062;-72
2023/08/25 05:42:21;;;;;;;32.10;28.90;;;20.10;83.10;;;;;;4934359;29;20039;-72
2023/08/25 05:44:47;;;;;;;31.88;28.77;;;20.10;83.10;;;;;;4923320;29;20043;-72
2023/08/25 05:47:12;;;;;;;33.28;29.60;;;20.10;83.20;;;;;;4919766;29;20039;-72
2023/08/25 05:49:38;;;;;;;31.88;28.67;;;20.10;83.20;;;;;;4921651;29;20047;-72
2023/08/25 05:52:04;;;;;;;33.28;29.90;;;20.20;83.30;;;;;;4905807;29;20047;-72
2023/08/25 05:54:30;;;;;;;35.33;31.65;;;20.20;83.40;;;;;;4917446;28;20067;-72
2023/08/25 05:56:56;;;;;;;36.25;32.67;;;20.20;83.50;;;;;;4940328;29;20398;-72
2023/08/25 05:59:21;;;;;;;36.80;33.00;;;20.20;83.70;;;;;;4940237;29;20043;-73
2023/08/25 06:01:47;;;;;;;32.88;29.45;;;20.20;83.90;;;;;;4937258;29;20058;-73
2023/08/25 06:04:13;;;;;;;34.10;30.55;;;20.30;84.00;;;;;;4926153;29;20052;-72
2023/08/25 06:06:38;;;;;;;35.58;31.98;;;20.30;84.00;;;;;;4936456;29;20051;-73
2023/08/25 06:09:05;;;;;;;36.20;32.40;;;20.30;84.10;;;;;;4934313;29;20044;-73
2023/08/25 06:11:31;;;;;;;36.72;33.03;;;20.30;84.10;;;;;;4949902;28;20119;-72
2023/08/25 06:13:56;;;;;;;35.28;31.70;;;20.40;84.20;;;;;;4949857;28;20044;-73
2023/08/25 06:16:23;;;;;;;37.50;33.67;;;20.40;84.20;;;;;;4952575;29;20051;-72
2023/08/25 06:18:48;;;;;;;34.75;31.08;;;20.40;84.30;;;;;;4922274;29;20043;-73
2023/08/25 06:21:14;;;;;;;36.60;32.83;;;20.50;84.40;;;;;;4921234;29;20403;-73
2023/08/25 06:23:40;;;;;;;38.30;34.30;;;20.50;84.50;;;;;;4927770;29;20044;-73
2023/08/25 06:26:06;;;;;;;37.40;33.47;;;20.50;84.60;;;;;;4936575;29;20126;-73
2023/08/25 06:28:33;;;;;;;38.13;34.10;;;20.60;84.70;;;;;;4936696;29;20054;-73
2023/08/25 06:30:59;;;;;;;39.53;35.33;;;20.60;84.80;;;;;;4920840;29;20051;-73
2023/08/25 06:33:29;;;;;;;38.60;34.47;;;20.60;84.90;;;;;;4930952;29;20040;-72
2023/08/25 06:35:56;;;;;;;40.60;36.35;;;20.60;84.90;;;;;;4944391;29;20116;-72
2023/08/25 06:38:22;;;;;;;37.65;33.65;;;20.60;85.00;;;;;;4932707;29;20043;-73
2023/08/25 06:40:48;;;;;;;36.03;32.22;;;20.60;85.00;;;;;;4936527;29;20075;-73
2023/08/25 06:43:14;;;;;;;40.30;36.20;;;20.70;85.10;;;;;;4933150;29;20118;-73
2023/08/25 06:45:39;;;;;;;38.20;34.17;;;20.70;85.20;;;;;;4909155;29;20050;-73
2023/08/25 06:48:05;;;;;;;37.53;33.55;;;20.70;85.20;;;;;;4930012;29;20063;-73
2023/08/25 06:50:31;;;;;;;38.33;34.38;;;20.80;85.30;;;;;;4926394;29;20122;-73
2023/08/25 06:52:57;;;;;;;38.50;34.67;;;20.80;85.30;;;;;;4920111;29;20381;-72
2023/08/25 06:55:24;;;;;;;38.67;34.55;;;20.80;85.40;;;;;;4920273;29;20051;-73
2023/08/25 06:57:51;;;;;;;37.50;33.58;;;20.90;85.50;;;;;;4935712;29;20551;-74
2023/08/25 07:00:17;;;;;;;36.38;32.53;;;20.90;85.40;;;;;;4936117;29;20052;-74
2023/08/25 07:02:44;;;;;;;35.92;32.33;;;20.90;85.30;;;;;;4935753;29;20052;-74
2023/08/25 07:05:11;;;;;;;36.35;32.47;;;21.00;85.20;;;;;;4935599;29;20128;-74
2023/08/25 07:07:37;;;;;;;33.90;30.45;;;21.00;85.10;;;;;;4922262;29;20040;-74
2023/08/25 07:10:04;;;;;;;35.40;31.77;;;21.00;85.00;;;;;;4935721;29;20399;-74
2023/08/25 07:12:30;;;;;;;36.22;32.17;;;21.00;84.90;;;;;;4931705;29;20418;-74
2023/08/25 07:14:56;;;;;;;34.20;30.67;;;21.10;85.00;;;;;;4925584;29;20043;-74
2023/08/25 07:17:22;;;;;;;31.20;28.02;;;21.10;84.90;;;;;;4934106;29;20043;-73
2023/08/25 07:19:48;;;;;;;34.20;30.98;;;21.10;84.80;;;;;;4932607;29;20047;-73
2023/08/25 07:22:14;;;;;;;33.40;30.02;;;21.20;84.70;;;;;;4910515;29;20055;-74
2023/08/25 07:24:39;;;;;;;34.25;30.58;;;21.20;84.60;;;;;;4919387;29;20092;-74
2023/08/25 07:27:05;;;;;;;33.90;30.58;;;21.20;84.60;;;;;;4885361;29;20041;-74
2023/08/25 07:29:34;;;;;;;32.13;28.92;;;21.20;84.50;;;;;;4922131;29;20044;-74
2023/08/25 07:32:00;;;;;;;31.67;28.50;;;21.20;84.30;;;;;;4935388;29;20491;-74
2023/08/25 07:34:26;;;;;;;30.63;27.48;;;21.30;84.30;;;;;;4935171;29;20046;-74
2023/08/25 07:36:53;;;;;;;33.00;29.63;;;21.30;84.60;;;;;;4935299;29;20483;-74
2023/08/25 07:39:19;;;;;;;32.47;29.15;;;21.30;84.10;;;;;;4926839;29;20039;-74
2023/08/25 07:41:45;;;;;;;33.25;29.95;;;21.40;84.00;;;;;;4919620;29;20044;-74
2023/08/25 07:44:10;;;;;;;33.60;30.20;;;21.40;83.90;;;;;;4922094;29;20066;-75
2023/08/25 07:46:38;;;;;;;33.92;30.58;;;21.40;83.80;;;;;;4935253;29;20127;-74
2023/08/25 07:49:06;;;;;;;31.60;28.35;;;21.40;83.70;;;;;;4903864;29;20134;-74
2023/08/25 07:51:32;;;;;;;34.13;30.67;;;21.40;83.60;;;;;;4935493;29;20047;-73
2023/08/25 07:53:58;;;;;;;31.90;28.65;;;21.50;83.60;;;;;;4950487;29;20522;-73
2023/08/25 07:56:23;;;;;;;33.05;29.65;;;21.50;83.40;;;;;;4927526;29;20044;-73
2023/08/25 07:58:49;;;;;;;31.00;27.77;;;21.50;83.30;;;;;;4921962;29;20046;-73
2023/08/25 08:01:15;;;;;;;32.95;29.50;;;21.50;83.20;;;;;;4935145;29;20498;-74
2023/08/25 08:03:41;;;;;;;37.92;33.80;;;21.50;83.10;;;;;;4927965;29;20048;-74
2023/08/25 08:06:07;;;;;;;37.33;33.60;;;21.50;83.10;;;;;;4917010;29;20488;-74
2023/08/25 08:08:32;;;;;;;35.10;30.40;;;21.60;83.00;;;;;;4915769;29;20044;-74
2023/08/25 08:10:58;;;;;;;32.78;29.30;;;21.60;83.00;;;;;;4916004;29;20455;-74
2023/08/25 08:13:24;;;;;;;31.23;28.05;;;21.60;82.90;;;;;;4918969;29;21824;-73
2023/08/25 08:15:50;;;;;;;37.95;33.92;;;21.60;82.90;;;;;;4916297;29;20040;-74
2023/08/25 08:18:15;;;;;;;41.10;36.08;;;21.60;83.10;;;;;;4915343;29;20048;-74
2023/08/25 08:20:42;;;;;;;38.47;34.53;;;21.70;83.50;;;;;;4918927;29;20207;-73
2023/08/25 08:23:07;;;;;;;36.63;32.90;;;21.70;83.60;;;;;;4934642;29;20114;-73
2023/08/25 08:25:36;;;;;;;38.83;34.65;;;21.80;83.80;;;;;;4934391;29;20126;-73
2023/08/25 08:28:02;;;;;;;34.72;30.95;;;21.80;83.70;;;;;;4934753;29;20043;-73
2023/08/25 08:30:28;;;;;;;33.10;29.70;;;21.90;83.40;;;;;;4934137;29;20039;-73
2023/08/25 08:32:53;;;;;;;34.42;30.75;;;22.00;83.20;;;;;;4934141;29;20040;-73
2023/08/25 08:35:19;;;;;;;31.70;28.42;;;22.10;83.00;;;;;;4919004;29;20039;-73
2023/08/25 08:37:45;;;;;;;33.20;30.00;;;22.20;82.70;;;;;;4921996;29;20484;-73
2023/08/25 08:40:11;;;;;;;31.40;28.35;;;22.20;82.30;;;;;;4915488;29;20044;-73
2023/08/25 08:42:37;;;;;;;29.42;26.45;;;22.30;82.00;;;;;;4915472;29;20407;-74
2023/08/25 08:45:07;;;;;;;32.53;29.13;;;22.30;81.50;;;;;;4900034;29;20059;-74
2023/08/25 08:47:34;;;;;;;28.60;25.70;;;22.40;81.10;;;;;;4915382;29;20082;-74
2023/08/25 08:50:00;;;;;;;27.67;24.67;;;22.50;80.80;;;;;;4916409;29;20047;-73
2023/08/25 08:52:28;;;;;;;29.23;26.27;;;22.40;80.20;;;;;;4915297;29;20047;-73
2023/08/25 08:54:57;;;;;;;29.98;26.80;;;22.50;80.00;;;;;;4915214;29;20048;-73
2023/08/25 08:57:24;;;;;;;27.17;24.33;;;22.60;80.00;;;;;;4900016;29;20055;-74
2023/08/25 08:59:52;;;;;;;29.65;26.67;;;22.60;80.00;;;;;;4899647;29;20056;-73
2023/08/25 09:02:20;;;;;;;26.98;24.38;;;22.60;79.70;;;;;;4901832;29;20056;-73
2023/08/25 09:04:50;;;;;;;27.27;24.48;;;22.60;79.50;;;;;;4896686;29;20501;-73
2023/08/25 09:07:18;;;;;;;26.75;24.15;;;22.60;79.40;;;;;;4896709;29;20044;-74
2023/08/25 09:09:45;;;;;;;29.17;26.17;;;22.70;79.40;;;;;;4896389;29;20052;-73
2023/08/25 09:12:13;;;;;;;27.88;24.98;;;22.70;79.30;;;;;;4881091;29;20184;-73
2023/08/25 09:14:39;;;;;;;27.52;24.75;;;22.70;79.10;;;;;;4881022;29;20044;-73
2023/08/25 09:17:07;;;;;;;27.23;24.30;;;22.70;78.90;;;;;;4896261;29;20040;-73
2023/08/25 09:19:36;;;;;;;27.15;24.45;;;22.80;78.80;;;;;;4897327;29;20052;-73
2023/08/25 09:22:02;;;;;;;22.63;20.33;;;22.80;78.60;;;;;;4891996;29;20666;-74
2023/08/25 09:24:29;;;;;;;23.75;20.73;;;22.80;78.40;;;;;;4899885;29;20230;-74
2023/08/25 09:26:55;;;;;;;25.20;22.75;;;22.80;78.30;;;;;;4884154;29;20044;-73
2023/08/25 09:29:22;;;;;;;24.70;22.25;;;22.80;78.00;;;;;;4884554;29;20050;-73
2023/08/25 09:31:48;;;;;;;25.25;22.70;;;22.80;78.20;;;;;;4884671;29;20083;-73
2023/08/25 09:34:14;;;;;;;26.27;23.50;;;22.90;78.10;;;;;;4884180;29;20147;-73
2023/08/25 09:36:52;;;;;;;24.65;22.10;;;22.90;77.50;;;;;;4885433;29;20060;-73
2023/08/25 09:39:18;;;;;;;24.98;22.40;;;23.00;76.10;;;;;;4903099;29;20045;-73
2023/08/25 09:41:46;;;;;;;23.77;21.45;;;23.00;76.10;;;;;;4899596;29;20040;-73
2023/08/25 09:44:12;;;;;;;20.17;18.15;;;23.00;75.60;;;;;;4899539;29;20056;-73
2023/08/25 09:46:38;;;;;;;23.05;20.60;;;23.00;75.80;;;;;;4899630;29;20048;-73
2023/08/25 09:49:08;;;;;;;24.00;20.27;;;23.10;76.50;;;;;;4899426;29;20040;-74
2023/08/25 09:51:37;;;;;;;24.33;19.42;;;23.10;76.40;;;;;;4903515;29;20040;-74
2023/08/25 09:54:06;;;;;;;19.55;17.55;;;23.10;75.80;;;;;;4917048;29;20048;-74
2023/08/25 09:56:34;;;;;;;20.45;18.25;;;23.20;75.50;;;;;;4915583;29;20526;-74
2023/08/25 09:59:02;;;;;;;20.98;18.67;;;23.30;75.50;;;;;;4899406;29;20132;-74
2023/08/25 10:01:28;;;;;;;22.45;20.05;;;23.40;75.40;;;;;;4899207;29;20071;-74
2023/08/25 10:03:55;;;;;;;22.17;19.98;;;23.40;74.80;;;;;;4891108;29;20119;-74
2023/08/25 10:06:22;;;;;;;20.42;18.40;;;23.50;74.50;;;;;;4902678;29;20102;-74
2023/08/25 10:08:48;;;;;;;21.40;19.27;;;23.50;74.60;;;;;;4907876;29;20044;-74
2023/08/25 10:11:16;;;;;;;22.23;18.42;;;23.60;74.40;;;;;;4899530;29;20405;-74
2023/08/25 10:13:46;;;;;;;21.35;18.90;;;23.60;74.10;;;;;;4899225;29;20040;-74
2023/08/25 10:16:12;;;;;;;22.40;19.13;;;23.70;73.90;;;;;;4899344;29;20047;-74
2023/08/25 10:18:44;;;;;;;19.33;17.05;;;23.70;73.60;;;;;;4887250;29;20453;-74
2023/08/25 10:21:12;;;;;;;19.77;17.67;;;23.70;73.50;;;;;;4898883;29;20052;-74
2023/08/25 10:23:39;;;;;;;20.13;17.15;;;23.80;73.80;;;;;;4898986;29;20044;-74
2023/08/25 10:26:05;;;;;;;20.35;17.88;;;23.80;73.60;;;;;;4899979;29;20048;-74
2023/08/25 10:28:33;;;;;;;20.50;18.40;;;23.80;73.40;;;;;;4898863;29;20492;-74
2023/08/25 10:30:59;;;;;;;18.98;16.98;;;23.90;73.10;;;;;;4883186;29;20080;-74
2023/08/25 10:33:25;;;;;;;19.85;17.20;;;23.80;72.60;;;;;;4902579;29;20393;-74
2023/08/25 10:35:53;;;;;;;17.77;15.68;;;23.80;72.80;;;;;;4917812;29;20054;-74
2023/08/25 10:38:19;;;;;;;20.92;18.92;;;23.90;72.90;;;;;;4917585;29;20507;-74
2023/08/25 10:41:09;;;;;;;22.52;20.23;;;23.90;73.00;;;;;;4917236;29;20040;-74
2023/08/25 10:43:37;;;;;;;23.15;19.95;;;23.80;72.70;;;;;;4917442;29;20119;-74
2023/08/25 10:46:10;;;;;;;22.83;19.95;;;23.80;73.20;;;;;;4901573;29;20622;-74
2023/08/25 10:48:42;;;;;;;22.38;19.20;;;23.80;73.10;;;;;;4917312;29;20051;-74
2023/08/25 10:51:10;;;;;;;19.23;16.17;;;23.80;72.80;;;;;;4902886;29;20052;-74
2023/08/25 10:53:38;;;;;;;19.08;15.60;;;23.70;73.10;;;;;;4917609;29;20164;-74
2023/08/25 10:56:15;;;;;;;23.63;18.38;;;23.70;73.60;;;;;;4901440;29;20443;-74
2023/08/25 10:58:41;;;;;;;27.35;22.33;;;23.70;73.90;;;;;;4917012;29;20055;-74
2023/08/25 11:01:07;;;;;;;25.75;22.40;;;23.70;74.10;;;;;;4921671;29;20056;-74
2023/08/25 11:04:07;;;;;;;25.40;22.70;;;23.70;74.10;;;;;;4936136;29;20098;-74
2023/08/25 11:06:47;;;;;;;22.67;19.05;;;23.70;74.20;;;;;;4911915;29;20392;-74
2023/08/25 11:09:32;;;;;;;24.20;21.55;;;23.60;74.40;;;;;;4936006;29;20058;-74
2023/08/25 11:11:59;;;;;;;21.67;19.45;;;23.60;74.60;;;;;;4919727;29;20491;-74
2023/08/25 11:14:29;;;;;;;25.27;22.55;;;23.60;75.00;;;;;;4936296;29;20399;-74
2023/08/25 11:17:00;;;;;;;26.13;22.83;;;23.60;74.80;;;;;;4919971;29;20055;-74
2023/08/25 11:19:26;;;;;;;24.60;21.20;;;23.60;74.60;;;;;;4935669;29;20134;-74
2023/08/25 11:22:00;;;;;;;24.88;22.05;;;23.60;74.80;;;;;;4935992;29;20071;-74
2023/08/25 11:24:26;;;;;;;21.30;19.05;;;23.70;75.10;;;;;;4935626;29;20079;-74
2023/08/25 11:26:52;;;;;;;19.52;17.42;;;23.70;74.80;;;;;;4919892;29;20504;-74
2023/08/25 11:29:18;;;;;;;24.42;19.15;;;23.70;74.90;;;;;;4920135;29;20083;-74
2023/08/25 11:31:44;;;;;;;21.63;18.42;;;23.70;75.00;;;;;;4919806;29;20052;-74
2023/08/25 11:34:10;;;;;;;20.63;18.38;;;23.80;74.80;;;;;;4933798;29;20051;-74
2023/08/25 11:36:36;;;;;;;20.98;17.77;;;23.80;74.20;;;;;;4935441;29;20040;-74
2023/08/25 11:39:02;;;;;;;20.23;16.42;;;23.80;73.90;;;;;;4935002;29;20098;-74
2023/08/25 11:41:28;;;;;;;18.33;14.65;;;23.80;73.40;;;;;;4935356;29;20043;-74
2023/08/25 11:43:55;;;;;;;21.38;17.48;;;23.80;73.20;;;;;;4934347;29;20040;-74
2023/08/25 11:46:21;;;;;;;17.38;15.00;;;23.90;73.30;;;;;;4919612;29;20506;-74
2023/08/25 11:48:51;;;;;;;17.20;14.27;;;23.90;73.40;;;;;;4928954;29;20079;-74
2023/08/25 11:51:18;;;;;;;15.45;13.77;;;23.90;73.30;;;;;;4916265;29;20152;-74
2023/08/25 11:53:44;;;;;;;19.02;16.40;;;23.90;72.90;;;;;;4901105;29;20044;-74
2023/08/25 11:56:17;;;;;;;21.30;19.02;;;23.90;72.30;;;;;;4900670;29;20055;-74
2023/08/25 11:58:45;;;;;;;22.35;19.95;;;23.90;72.30;;;;;;4916373;29;20183;-74
2023/08/25 12:01:12;;;;;;;21.30;18.95;;;23.90;73.00;;;;;;4916217;29;20056;-74
2023/08/25 12:03:39;;;;;;;25.50;22.77;;;23.90;73.60;;;;;;4915735;29;20150;-74
2023/08/25 12:06:05;;;;;;;22.00;19.70;;;23.90;74.20;;;;;;4915700;29;20528;-74
2023/08/25 12:08:32;;;;;;;27.05;21.80;;;23.90;74.40;;;;;;4900661;29;20043;-74
2023/08/25 12:10:59;;;;;;;27.23;24.35;;;23.90;74.30;;;;;;4915967;29;20568;-74
2023/08/25 12:13:32;;;;;;;21.85;18.45;;;23.90;74.40;;;;;;4915921;29;20496;-74
2023/08/25 12:15:58;;;;;;;19.23;17.33;;;23.90;74.70;;;;;;4932059;29;20158;-74
2023/08/25 12:18:35;;;;;;;25.67;23.02;;;23.80;74.80;;;;;;4915589;29;20050;-74
2023/08/25 12:21:05;;;;;;;24.95;21.50;;;23.80;74.50;;;;;;4884809;29;20079;-74
2023/08/25 12:23:35;;;;;;;23.10;19.75;;;23.80;74.30;;;;;;4915531;29;20107;-74
2023/08/25 12:26:06;;;;;;;23.67;21.17;;;23.70;74.50;;;;;;4915866;29;20044;-73
2023/08/25 12:28:32;;;;;;;21.48;19.10;;;23.70;74.90;;;;;;4914407;29;20076;-73